createdAt,value
2018-03-28T00:00:59.738Z,0
2018-03-28T00:01:59.209Z,0
2018-03-28T00:02:59.681Z,0
2018-03-28T00:03:59.404Z,0
2018-03-28T00:04:59.131Z,0
2018-03-28T00:05:59.352Z,0
2018-03-28T00:06:59.337Z,0
2018-03-28T00:07:59.552Z,0
2018-03-28T00:08:59.523Z,0
2018-03-28T00:09:59.246Z,0
2018-03-28T00:10:59.470Z,0
2018-03-28T00:11:59.209Z,0
2018-03-28T00:12:59.183Z,0
2018-03-28T00:13:59.148Z,0
2018-03-28T00:14:59.118Z,0
2018-03-28T00:15:59.085Z,0
2018-03-28T00:16:59.314Z,0
2018-03-28T00:17:59.043Z,0
2018-03-28T00:18:59.254Z,0
2018-03-28T00:19:59.221Z,0
2018-03-28T00:20:59.203Z,0
2018-03-28T00:21:58.927Z,0
2018-03-28T00:22:59.162Z,0
2018-03-28T00:23:59.123Z,0
2018-03-28T00:24:59.090Z,0
2018-03-28T00:25:58.818Z,0
2018-03-28T00:26:58.791Z,0
2018-03-28T00:27:59.024Z,0
2018-03-28T00:28:58.738Z,0
2018-03-28T00:29:58.958Z,0
2018-03-28T00:30:58.933Z,0
2018-03-28T00:31:58.656Z,0
2018-03-28T00:32:58.388Z,0
2018-03-28T00:33:58.855Z,0
2018-03-28T00:34:58.830Z,0
2018-03-28T00:35:58.815Z,0
2018-03-28T00:36:58.771Z,0
2018-03-28T00:37:58.748Z,0
2018-03-28T00:38:58.714Z,0
2018-03-28T00:39:58.702Z,0
2018-03-28T00:40:58.417Z,0
2018-03-28T00:41:58.140Z,0
2018-03-28T00:42:58.617Z,0
2018-03-28T00:43:58.585Z,0
2018-03-28T00:44:58.310Z,0
2018-03-28T00:45:58.528Z,0
2018-03-28T00:46:58.258Z,0
2018-03-28T00:47:58.231Z,0
2018-03-28T00:48:58.198Z,0
2018-03-28T00:49:58.422Z,0
2018-03-28T00:50:58.145Z,0
2018-03-28T00:51:58.380Z,0
2018-03-28T00:52:58.344Z,0
2018-03-28T00:53:58.318Z,0
2018-03-28T00:54:57.788Z,0
2018-03-28T00:55:58.018Z,0
2018-03-28T00:56:57.739Z,0
2018-03-28T00:57:58.221Z,0
2018-03-28T00:58:57.930Z,0
2018-03-28T00:59:58.180Z,0
2018-03-28T01:00:58.129Z,0
2018-03-28T01:01:57.861Z,0
2018-03-28T01:02:57.826Z,0
2018-03-28T01:03:58.042Z,0
2018-03-28T01:04:58.088Z,0
2018-03-28T01:05:57.799Z,0
2018-03-28T01:06:57.722Z,0
2018-03-28T01:07:57.938Z,0
2018-03-28T01:08:57.665Z,0
2018-03-28T01:09:57.640Z,0
2018-03-28T01:10:57.611Z,0
2018-03-28T01:11:57.584Z,0
2018-03-28T01:12:57.815Z,0
2018-03-28T01:13:57.533Z,0
2018-03-28T01:14:57.754Z,0
2018-03-28T01:15:57.736Z,0
2018-03-28T01:16:57.461Z,0
2018-03-28T01:17:57.431Z,0
2018-03-28T01:18:57.643Z,0
2018-03-28T01:19:57.625Z,0
2018-03-28T01:20:57.346Z,0
2018-03-28T01:21:57.319Z,0
2018-03-28T01:22:57.542Z,0
2018-03-28T01:23:57.515Z,0
2018-03-28T01:24:57.496Z,0
2018-03-28T01:25:56.960Z,0
2018-03-28T01:26:56.937Z,0
2018-03-28T01:27:57.161Z,0
2018-03-28T01:28:57.482Z,0
2018-03-28T01:29:57.351Z,0
2018-03-28T01:30:57.335Z,0
2018-03-28T01:31:57.304Z,0
2018-03-28T01:32:57.307Z,0
2018-03-28T01:33:57.001Z,0
2018-03-28T01:34:56.967Z,0
2018-03-28T01:35:56.945Z,0
2018-03-28T01:36:57.173Z,0
2018-03-28T01:37:57.142Z,0
2018-03-28T01:38:57.127Z,0
2018-03-28T01:39:57.086Z,0
2018-03-28T01:40:56.815Z,0
2018-03-28T01:41:57.031Z,0
2018-03-28T01:42:57.026Z,0
2018-03-28T01:43:56.980Z,0
2018-03-28T01:44:56.961Z,0
2018-03-28T01:45:56.679Z,0
2018-03-28T01:46:56.898Z,0
2018-03-28T01:47:56.870Z,0
2018-03-28T01:48:56.868Z,0
2018-03-28T01:49:56.830Z,0
2018-03-28T01:50:56.787Z,0
2018-03-28T01:51:56.529Z,0
2018-03-28T01:52:56.738Z,0
2018-03-28T01:53:56.462Z,0
2018-03-28T01:54:56.684Z,0
2018-03-28T01:55:56.656Z,0
2018-03-28T01:56:56.382Z,0
2018-03-28T01:57:56.605Z,0
2018-03-28T01:58:56.579Z,0
2018-03-28T01:59:56.572Z,0
2018-03-28T02:00:56.528Z,0
2018-03-28T02:01:56.502Z,0
2018-03-28T02:02:56.481Z,0
2018-03-28T02:03:56.441Z,0
2018-03-28T02:04:56.436Z,0
2018-03-28T02:05:56.451Z,0
2018-03-28T02:06:56.517Z,0
2018-03-28T02:07:56.344Z,0
2018-03-28T02:08:56.372Z,0
2018-03-28T02:09:56.287Z,0
2018-03-28T02:10:56.259Z,0
2018-03-28T02:11:55.741Z,0
2018-03-28T02:12:56.205Z,0
2018-03-28T02:13:56.185Z,0
2018-03-28T02:14:55.907Z,0
2018-03-28T02:15:56.145Z,0
2018-03-28T02:16:56.102Z,0
2018-03-28T02:17:56.075Z,0
2018-03-28T02:18:56.045Z,0
2018-03-28T02:19:56.015Z,0
2018-03-28T02:20:55.745Z,0
2018-03-28T02:21:55.976Z,0
2018-03-28T02:22:55.693Z,0
2018-03-28T02:23:55.926Z,0
2018-03-28T02:24:55.650Z,0
2018-03-28T02:25:55.868Z,0
2018-03-28T02:26:55.599Z,0
2018-03-28T02:27:55.806Z,0
2018-03-28T02:28:55.537Z,0
2018-03-28T02:29:55.516Z,0
2018-03-28T02:30:55.736Z,0
2018-03-28T02:31:55.471Z,0
2018-03-28T02:32:55.707Z,0
2018-03-28T02:33:55.399Z,0
2018-03-28T02:34:55.633Z,0
2018-03-28T02:35:55.596Z,0
2018-03-28T02:36:55.319Z,0
2018-03-28T02:37:55.549Z,0
2018-03-28T02:38:55.517Z,0
2018-03-28T02:39:55.493Z,0
2018-03-28T02:40:55.482Z,0
2018-03-28T02:41:55.450Z,0
2018-03-28T02:42:55.161Z,0
2018-03-28T02:43:55.136Z,0
2018-03-28T02:44:55.119Z,0
2018-03-28T02:45:55.345Z,0
2018-03-28T02:46:54.808Z,0
2018-03-28T02:47:55.276Z,0
2018-03-28T02:48:55.044Z,0
2018-03-28T02:49:55.233Z,0
2018-03-28T02:50:55.205Z,0
2018-03-28T02:51:55.183Z,0
2018-03-28T02:52:54.905Z,0
2018-03-28T02:53:55.127Z,0
2018-03-28T02:54:54.852Z,0
2018-03-28T02:55:54.824Z,0
2018-03-28T02:56:55.040Z,0
2018-03-28T02:57:55.018Z,0
2018-03-28T02:58:54.739Z,0
2018-03-28T02:59:54.727Z,0
2018-03-28T03:00:54.935Z,0
2018-03-28T03:01:54.913Z,0
2018-03-28T03:02:54.884Z,0
2018-03-28T03:03:54.854Z,0
2018-03-28T03:04:54.836Z,0
2018-03-28T03:05:54.558Z,0
2018-03-28T03:06:54.527Z,0
2018-03-28T03:07:54.748Z,0
2018-03-28T03:08:54.226Z,0
2018-03-28T03:09:54.465Z,0
2018-03-28T03:10:54.416Z,0
2018-03-28T03:11:54.390Z,0
2018-03-28T03:12:54.114Z,0
2018-03-28T03:13:54.587Z,0
2018-03-28T03:14:54.571Z,0
2018-03-28T03:15:54.635Z,0
2018-03-28T03:16:54.504Z,0
2018-03-28T03:17:54.477Z,0
2018-03-28T03:18:54.445Z,0
2018-03-28T03:19:54.421Z,0
2018-03-28T03:20:54.395Z,0
2018-03-28T03:21:54.126Z,0
2018-03-28T03:22:54.351Z,0
2018-03-28T03:23:54.320Z,0
2018-03-28T03:24:54.048Z,0
2018-03-28T03:25:54.020Z,0
2018-03-28T03:26:53.743Z,0
2018-03-28T03:27:54.212Z,0
2018-03-28T03:28:53.944Z,0
2018-03-28T03:29:54.186Z,0
2018-03-28T03:30:53.900Z,0
2018-03-28T03:31:54.119Z,0
2018-03-28T03:32:54.077Z,0
2018-03-28T03:33:53.803Z,0
2018-03-28T03:34:54.030Z,0
2018-03-28T03:35:53.501Z,0
2018-03-28T03:36:53.234Z,0
2018-03-28T03:37:53.446Z,0
2018-03-28T03:38:53.922Z,0
2018-03-28T03:39:53.897Z,0
2018-03-28T03:40:53.895Z,0
2018-03-28T03:41:53.839Z,0
2018-03-28T03:42:53.817Z,0
2018-03-28T03:43:53.791Z,0
2018-03-28T03:44:53.545Z,0
2018-03-28T03:45:53.243Z,0
2018-03-28T03:46:53.714Z,0
2018-03-28T03:47:53.695Z,0
2018-03-28T03:48:53.649Z,0
2018-03-28T03:49:53.622Z,0
2018-03-28T03:50:53.613Z,0
2018-03-28T03:51:53.578Z,0
2018-03-28T03:52:53.050Z,0
2018-03-28T03:53:53.520Z,0
2018-03-28T03:54:53.512Z,0
2018-03-28T03:55:53.226Z,0
2018-03-28T03:56:52.950Z,0
2018-03-28T03:57:53.416Z,0
2018-03-28T03:58:53.258Z,0
2018-03-28T03:59:52.864Z,0
2018-03-28T04:00:53.339Z,0
2018-03-28T04:01:53.063Z,0
2018-03-28T04:02:52.790Z,0
2018-03-28T04:03:53.016Z,0
2018-03-28T04:04:52.985Z,0
2018-03-28T04:05:53.210Z,0
2018-03-28T04:06:53.181Z,0
2018-03-28T04:07:52.658Z,0
2018-03-28T04:08:53.126Z,0
2018-03-28T04:09:53.112Z,0
2018-03-28T04:10:53.085Z,0
2018-03-28T04:11:52.552Z,0
2018-03-28T04:12:53.019Z,0
2018-03-28T04:13:52.740Z,0
2018-03-28T04:14:52.966Z,0
2018-03-28T04:15:52.688Z,0
2018-03-28T04:16:52.424Z,0
2018-03-28T04:17:52.431Z,0
2018-03-28T04:18:52.610Z,0
2018-03-28T04:19:52.585Z,0
2018-03-28T04:20:52.305Z,0
2018-03-28T04:21:52.529Z,0
2018-03-28T04:22:52.258Z,0
2018-03-28T04:23:52.480Z,0
2018-03-28T04:24:52.450Z,0
2018-03-28T04:25:52.668Z,0
2018-03-28T04:26:52.650Z,0
2018-03-28T04:27:52.369Z,0
2018-03-28T04:28:52.100Z,0
2018-03-28T04:29:52.564Z,0
2018-03-28T04:30:52.544Z,0
2018-03-28T04:31:52.275Z,0
2018-03-28T04:32:52.489Z,0
2018-03-28T04:33:52.210Z,0
2018-03-28T04:34:52.435Z,0
2018-03-28T04:35:52.157Z,0
2018-03-28T04:36:52.382Z,0
2018-03-28T04:37:52.353Z,0
2018-03-28T04:38:52.328Z,0
2018-03-28T04:39:52.316Z,0
2018-03-28T04:40:52.278Z,0
2018-03-28T04:41:51.747Z,0
2018-03-28T04:42:52.224Z,0
2018-03-28T04:43:52.215Z,0
2018-03-28T04:44:52.165Z,0
2018-03-28T04:45:52.139Z,0
2018-03-28T04:46:52.111Z,4
2018-03-28T04:47:52.093Z,4
2018-03-28T04:48:52.069Z,4
2018-03-28T04:49:52.038Z,0
2018-03-28T04:50:52.012Z,0
2018-03-28T04:51:51.984Z,4
2018-03-28T04:52:51.712Z,4
2018-03-28T04:53:51.678Z,4
2018-03-28T04:54:51.656Z,8
2018-03-28T04:55:52.052Z,4
2018-03-28T04:56:51.606Z,8
2018-03-28T04:57:51.932Z,12
2018-03-28T04:58:51.800Z,8
2018-03-28T04:59:51.773Z,12
2018-03-28T05:00:51.498Z,12
2018-03-28T05:01:51.713Z,16
2018-03-28T05:02:51.707Z,12
2018-03-28T05:03:51.672Z,16
2018-03-28T05:04:51.642Z,16
2018-03-28T05:05:51.615Z,20
2018-03-28T05:06:51.341Z,20
2018-03-28T05:07:51.064Z,24
2018-03-28T05:08:51.034Z,28
2018-03-28T05:09:51.514Z,32
2018-03-28T05:10:51.489Z,36
2018-03-28T05:11:51.450Z,40
2018-03-28T05:12:51.181Z,44
2018-03-28T05:13:51.159Z,40
2018-03-28T05:14:51.137Z,44
2018-03-28T05:15:51.731Z,48
2018-03-28T05:16:51.325Z,48
2018-03-28T05:17:51.045Z,52
2018-03-28T05:18:51.021Z,56
2018-03-28T05:19:51.016Z,56
2018-03-28T05:20:52.079Z,52
2018-03-28T05:21:50.940Z,56
2018-03-28T05:22:51.242Z,64
2018-03-28T05:23:51.143Z,72
2018-03-28T05:24:50.859Z,76
2018-03-28T05:25:51.092Z,92
2018-03-28T05:26:50.816Z,120
2018-03-28T05:27:51.030Z,156
2018-03-28T05:28:50.758Z,160
2018-03-28T05:29:50.727Z,184
2018-03-28T05:30:50.953Z,200
2018-03-28T05:31:50.679Z,216
2018-03-28T05:32:50.901Z,208
2018-03-28T05:33:50.875Z,212
2018-03-28T05:34:50.600Z,236
2018-03-28T05:35:50.327Z,252
2018-03-28T05:36:50.797Z,248
2018-03-28T05:37:50.766Z,272
2018-03-28T05:38:50.784Z,308
2018-03-28T05:39:50.725Z,344
2018-03-28T05:40:50.445Z,368
2018-03-28T05:41:50.664Z,396
2018-03-28T05:42:50.708Z,440
2018-03-28T05:43:50.610Z,536
2018-03-28T05:44:50.598Z,564
2018-03-28T05:45:50.320Z,668
2018-03-28T05:46:50.286Z,628
2018-03-28T05:47:50.513Z,572
2018-03-28T05:48:50.476Z,624
2018-03-28T05:49:50.555Z,708
2018-03-28T05:50:50.432Z,764
2018-03-28T05:51:49.907Z,784
2018-03-28T05:52:50.121Z,772
2018-03-28T05:53:50.095Z,792
2018-03-28T05:54:50.321Z,836
2018-03-28T05:55:50.069Z,844
2018-03-28T05:56:50.262Z,836
2018-03-28T05:57:50.254Z,832
2018-03-28T05:58:50.222Z,792
2018-03-28T05:59:50.191Z,768
2018-03-28T06:00:50.163Z,772
2018-03-28T06:01:50.135Z,792
2018-03-28T06:02:50.110Z,840
2018-03-28T06:03:50.085Z,756
2018-03-28T06:04:50.049Z,732
2018-03-28T06:05:50.034Z,736
2018-03-28T06:06:49.755Z,736
2018-03-28T06:07:49.813Z,728
2018-03-28T06:08:49.952Z,732
2018-03-28T06:09:49.676Z,648
2018-03-28T06:10:49.651Z,608
2018-03-28T06:11:49.871Z,660
2018-03-28T06:12:49.850Z,704
2018-03-28T06:13:49.815Z,716
2018-03-28T06:14:49.541Z,720
2018-03-28T06:15:49.772Z,764
2018-03-28T06:16:49.486Z,808
2018-03-28T06:17:49.713Z,852
2018-03-28T06:18:49.700Z,860
2018-03-28T06:19:49.656Z,944
2018-03-28T06:20:49.633Z,936
2018-03-28T06:21:49.610Z,1064
2018-03-28T06:22:49.589Z,1096
2018-03-28T06:23:49.553Z,1052
2018-03-28T06:24:49.531Z,1024
2018-03-28T06:25:49.508Z,1008
2018-03-28T06:26:49.476Z,988
2018-03-28T06:27:49.217Z,964
2018-03-28T06:28:49.423Z,984
2018-03-28T06:29:49.149Z,1000
2018-03-28T06:30:49.199Z,1044
2018-03-28T06:31:49.356Z,1136
2018-03-28T06:32:48.823Z,1304
2018-03-28T06:33:50.264Z,1280
2018-03-28T06:34:50.079Z,1196
2018-03-28T06:35:48.990Z,1144
2018-03-28T06:36:49.261Z,1320
2018-03-28T06:37:49.188Z,1428
2018-03-28T06:38:49.166Z,1432
2018-03-28T06:39:49.117Z,1352
2018-03-28T06:40:49.106Z,1440
2018-03-28T06:41:49.084Z,1556
2018-03-28T06:42:49.268Z,1476
2018-03-28T06:43:49.479Z,1688
2018-03-28T06:44:50.458Z,1740
2018-03-28T06:45:49.945Z,1992
2018-03-28T06:46:48.952Z,1904
2018-03-28T06:47:48.918Z,1812
2018-03-28T06:48:49.429Z,1524
2018-03-28T06:49:49.214Z,1416
2018-03-28T06:50:50.238Z,1260
2018-03-28T06:51:48.483Z,1344
2018-03-28T06:52:50.501Z,2088
2018-03-28T06:53:50.524Z,3748
2018-03-28T06:54:49.311Z,3552
2018-03-28T06:55:48.729Z,4492
2018-03-28T06:56:48.684Z,4352
2018-03-28T06:57:48.794Z,4020
2018-03-28T06:58:48.380Z,4024
2018-03-28T06:59:48.818Z,3852
2018-03-28T07:00:48.082Z,3816
2018-03-28T07:01:48.323Z,3848
2018-03-28T07:02:48.530Z,3660
2018-03-28T07:03:48.601Z,4364
2018-03-28T07:04:48.221Z,5320
2018-03-28T07:05:48.850Z,5700
2018-03-28T07:06:49.306Z,5576
2018-03-28T07:07:48.160Z,5148
2018-03-28T07:08:48.121Z,4644
2018-03-28T07:09:48.360Z,5160
2018-03-28T07:10:48.329Z,6096
2018-03-28T07:11:48.295Z,6776
2018-03-28T07:12:48.307Z,7412
2018-03-28T07:13:47.965Z,7584
2018-03-28T07:14:48.204Z,8048
2018-03-28T07:15:48.187Z,8500
2018-03-28T07:16:47.932Z,8764
2018-03-28T07:17:47.640Z,6876
2018-03-28T07:18:48.208Z,4728
2018-03-28T07:19:48.485Z,4388
2018-03-28T07:20:48.969Z,4572
2018-03-28T07:21:47.538Z,4440
2018-03-28T07:22:48.054Z,4148
2018-03-28T07:23:47.489Z,3720
2018-03-28T07:24:47.818Z,3532
2018-03-28T07:25:47.439Z,3820
2018-03-28T07:26:47.916Z,4180
2018-03-28T07:27:47.671Z,4212
2018-03-28T07:28:48.005Z,4904
2018-03-28T07:29:47.844Z,4960
2018-03-28T07:30:47.314Z,4492
2018-03-28T07:31:47.797Z,4940
2018-03-28T07:32:47.261Z,4956
2018-03-28T07:33:47.758Z,5088
2018-03-28T07:34:47.712Z,5808
2018-03-28T07:35:48.448Z,6348
2018-03-28T07:36:47.161Z,7064
2018-03-28T07:37:47.638Z,6492
2018-03-28T07:38:47.407Z,6812
2018-03-28T07:39:47.094Z,6352
2018-03-28T07:40:47.562Z,6620
2018-03-28T07:41:47.286Z,7180
2018-03-28T07:42:47.506Z,7524
2018-03-28T07:43:47.491Z,7332
2018-03-28T07:44:47.454Z,7308
2018-03-28T07:45:47.184Z,6684
2018-03-28T07:46:48.733Z,6760
2018-03-28T07:47:47.139Z,7980
2018-03-28T07:48:47.358Z,7688
2018-03-28T07:49:46.843Z,8724
2018-03-28T07:50:47.310Z,9436
2018-03-28T07:51:47.283Z,11256
2018-03-28T07:52:47.012Z,11272
2018-03-28T07:53:46.987Z,10028
2018-03-28T07:54:47.225Z,9668
2018-03-28T07:55:46.835Z,10628
2018-03-28T07:56:46.925Z,8076
2018-03-28T07:57:46.893Z,8076
2018-03-28T07:58:47.111Z,8332
2018-03-28T07:59:47.086Z,9408
2018-03-28T08:00:46.867Z,9320
2018-03-28T08:01:47.055Z,11444
2018-03-28T08:02:47.015Z,14288
2018-03-28T08:03:46.991Z,15352
2018-03-28T08:04:46.710Z,15476
2018-03-28T08:05:46.846Z,17048
2018-03-28T08:06:46.939Z,16192
2018-03-28T08:07:46.894Z,19008
2018-03-28T08:08:46.629Z,21024
2018-03-28T08:09:46.595Z,21056
2018-03-28T08:10:46.565Z,20128
2018-03-28T08:11:46.794Z,22912
2018-03-28T08:12:46.525Z,23968
2018-03-28T08:13:46.748Z,22048
2018-03-28T08:14:46.223Z,21216
2018-03-28T08:15:46.704Z,19296
2018-03-28T08:16:46.184Z,19520
2018-03-28T08:17:46.647Z,18304
2018-03-28T08:18:46.135Z,17824
2018-03-28T08:19:46.362Z,20576
2018-03-28T08:20:46.589Z,21024
2018-03-28T08:21:45.814Z,19264
2018-03-28T08:22:46.287Z,19904
2018-03-28T08:23:46.262Z,21472
2018-03-28T08:24:46.244Z,20800
2018-03-28T08:25:47.186Z,19712
2018-03-28T08:26:46.447Z,19360
2018-03-28T08:27:46.427Z,17216
2018-03-28T08:28:46.593Z,15760
2018-03-28T08:29:46.130Z,17396
2018-03-28T08:30:46.411Z,18304
2018-03-28T08:31:46.336Z,15440
2018-03-28T08:32:46.312Z,14944
2018-03-28T08:33:46.289Z,16184
2018-03-28T08:34:46.021Z,15808
2018-03-28T08:35:45.999Z,13860
2018-03-28T08:36:45.975Z,13308
2018-03-28T08:37:45.704Z,15500
2018-03-28T08:38:46.173Z,15664
2018-03-28T08:39:45.912Z,13500
2018-03-28T08:40:45.887Z,11080
2018-03-28T08:41:46.109Z,10376
2018-03-28T08:42:46.091Z,10704
2018-03-28T08:43:46.064Z,11436
2018-03-28T08:44:46.054Z,11840
2018-03-28T08:45:45.773Z,10428
2018-03-28T08:46:45.775Z,9280
2018-03-28T08:47:45.972Z,10192
2018-03-28T08:48:45.706Z,10712
2018-03-28T08:49:45.683Z,10500
2018-03-28T08:50:45.907Z,9408
2018-03-28T08:51:45.639Z,9748
2018-03-28T08:52:45.858Z,11196
2018-03-28T08:53:45.837Z,11432
2018-03-28T08:54:45.816Z,10160
2018-03-28T08:55:45.293Z,10560
2018-03-28T08:56:45.779Z,15928
2018-03-28T08:57:45.760Z,19840
2018-03-28T08:58:45.514Z,21856
2018-03-28T08:59:44.956Z,23360
2018-03-28T09:00:45.180Z,22048
2018-03-28T09:01:45.154Z,21760
2018-03-28T09:02:45.135Z,21248
2018-03-28T09:03:45.120Z,20416
2018-03-28T09:04:45.596Z,19424
2018-03-28T09:05:45.563Z,19680
2018-03-28T09:06:45.553Z,21472
2018-03-28T09:07:45.517Z,22976
2018-03-28T09:08:45.253Z,24896
2018-03-28T09:09:45.063Z,25664
2018-03-28T09:10:45.451Z,25440
2018-03-28T09:11:45.047Z,24896
2018-03-28T09:12:45.242Z,24416
2018-03-28T09:13:45.141Z,24064
2018-03-28T09:14:45.372Z,23744
2018-03-28T09:15:45.343Z,23712
2018-03-28T09:16:44.824Z,24064
2018-03-28T09:17:45.845Z,24704
2018-03-28T09:18:45.290Z,25600
2018-03-28T09:19:45.010Z,26496
2018-03-28T09:20:45.257Z,27040
2018-03-28T09:21:45.215Z,27360
2018-03-28T09:22:45.197Z,28000
2018-03-28T09:23:45.179Z,28416
2018-03-28T09:24:44.905Z,28864
2018-03-28T09:25:45.129Z,29312
2018-03-28T09:26:44.864Z,29184
2018-03-28T09:27:45.884Z,28672
2018-03-28T09:28:45.082Z,27648
2018-03-28T09:29:45.058Z,26496
2018-03-28T09:30:44.958Z,25920
2018-03-28T09:31:45.011Z,26240
2018-03-28T09:32:44.990Z,26624
2018-03-28T09:33:44.977Z,27200
2018-03-28T09:34:44.959Z,27648
2018-03-28T09:35:44.926Z,27616
2018-03-28T09:36:44.904Z,26848
2018-03-28T09:37:44.891Z,25824
2018-03-28T09:38:44.640Z,25024
2018-03-28T09:39:44.608Z,26432
2018-03-28T09:40:44.832Z,26400
2018-03-28T09:41:44.819Z,23968
2018-03-28T09:42:44.546Z,21440
2018-03-28T09:43:44.794Z,21152
2018-03-28T09:44:44.252Z,21888
2018-03-28T09:45:44.485Z,22592
2018-03-28T09:46:44.468Z,22848
2018-03-28T09:47:44.691Z,23776
2018-03-28T09:48:44.428Z,23200
2018-03-28T09:49:44.398Z,21408
2018-03-28T09:50:44.143Z,20256
2018-03-28T09:51:44.361Z,19360
2018-03-28T09:52:44.339Z,19360
2018-03-28T09:53:44.316Z,20576
2018-03-28T09:54:44.548Z,21664
2018-03-28T09:55:44.530Z,22496
2018-03-28T09:56:44.482Z,22528
2018-03-28T09:57:44.740Z,22336
2018-03-28T09:58:44.222Z,21824
2018-03-28T09:59:44.447Z,21888
2018-03-28T10:00:44.178Z,22176
2018-03-28T10:01:44.410Z,22304
2018-03-28T10:02:44.147Z,22048
2018-03-28T10:03:44.123Z,22240
2018-03-28T10:04:44.351Z,23072
2018-03-28T10:05:44.328Z,23808
2018-03-28T10:06:44.321Z,24288
2018-03-28T10:07:44.288Z,24192
2018-03-28T10:08:44.266Z,23296
2018-03-28T10:09:44.247Z,22624
2018-03-28T10:10:44.257Z,21856
2018-03-28T10:11:44.256Z,20992
2018-03-28T10:12:44.180Z,20896
2018-03-28T10:13:44.168Z,20832
2018-03-28T10:14:44.162Z,18720
2018-03-28T10:15:43.891Z,15292
2018-03-28T10:16:44.112Z,12220
2018-03-28T10:17:43.847Z,10448
2018-03-28T10:18:43.580Z,10676
2018-03-28T10:19:44.164Z,12892
2018-03-28T10:20:44.023Z,15348
2018-03-28T10:21:43.756Z,16800
2018-03-28T10:22:43.736Z,16808
2018-03-28T10:23:43.721Z,16488
2018-03-28T10:24:43.952Z,16504
2018-03-28T10:25:43.922Z,16844
2018-03-28T10:26:43.698Z,16188
2018-03-28T10:27:43.935Z,14968
2018-03-28T10:28:43.858Z,14388
2018-03-28T10:29:43.837Z,14280
2018-03-28T10:30:43.653Z,13844
2018-03-28T10:31:43.795Z,13444
2018-03-28T10:32:43.281Z,13632
2018-03-28T10:33:43.747Z,14420
2018-03-28T10:34:43.733Z,14844
2018-03-28T10:35:43.709Z,14548
2018-03-28T10:36:43.691Z,13768
2018-03-28T10:37:43.437Z,12776
2018-03-28T10:38:43.657Z,11020
2018-03-28T10:39:43.631Z,9884
2018-03-28T10:40:43.608Z,10272
2018-03-28T10:41:43.589Z,10976
2018-03-28T10:42:43.332Z,10684
2018-03-28T10:43:43.052Z,9876
2018-03-28T10:44:43.269Z,9352
2018-03-28T10:45:43.496Z,9488
2018-03-28T10:46:43.474Z,10872
2018-03-28T10:47:43.202Z,12788
2018-03-28T10:48:43.225Z,14696
2018-03-28T10:49:43.416Z,16124
2018-03-28T10:50:43.401Z,16204
2018-03-28T10:51:43.119Z,16164
2018-03-28T10:52:43.346Z,16528
2018-03-28T10:53:43.372Z,17096
2018-03-28T10:54:43.052Z,16780
2018-03-28T10:55:43.281Z,15916
2018-03-28T10:56:43.259Z,15268
2018-03-28T10:57:42.990Z,14388
2018-03-28T10:58:43.224Z,12488
2018-03-28T10:59:42.950Z,10948
2018-03-28T11:00:43.174Z,10540
2018-03-28T11:01:43.149Z,10308
2018-03-28T11:02:43.132Z,10212
2018-03-28T11:03:42.864Z,10772
2018-03-28T11:04:42.838Z,11480
2018-03-28T11:05:43.088Z,11808
2018-03-28T11:06:43.047Z,11492
2018-03-28T11:07:43.080Z,10912
2018-03-28T11:08:43.014Z,10992
2018-03-28T11:09:42.729Z,12028
2018-03-28T11:10:42.708Z,13220
2018-03-28T11:11:42.682Z,14700
2018-03-28T11:12:42.914Z,16340
2018-03-28T11:13:42.640Z,18016
2018-03-28T11:14:42.369Z,18592
2018-03-28T11:15:42.851Z,16916
2018-03-28T11:16:42.826Z,14544
2018-03-28T11:17:42.553Z,12736
2018-03-28T11:18:42.532Z,10960
2018-03-28T11:19:42.521Z,9688
2018-03-28T11:20:42.500Z,9792
2018-03-28T11:21:42.478Z,10332
2018-03-28T11:22:42.467Z,10160
2018-03-28T11:23:42.669Z,9164
2018-03-28T11:24:42.399Z,8288
2018-03-28T11:25:42.405Z,7820
2018-03-28T11:26:42.605Z,7892
2018-03-28T11:27:42.340Z,7672
2018-03-28T11:28:42.323Z,6708
2018-03-28T11:29:42.296Z,7240
2018-03-28T11:30:42.281Z,8564
2018-03-28T11:31:42.503Z,9172
2018-03-28T11:32:42.676Z,9304
2018-03-28T11:33:42.456Z,9296
2018-03-28T11:34:42.430Z,9264
2018-03-28T11:35:42.162Z,9340
2018-03-28T11:36:42.398Z,9952
2018-03-28T11:37:42.116Z,11432
2018-03-28T11:38:42.463Z,13184
2018-03-28T11:39:42.331Z,14984
2018-03-28T11:40:42.299Z,16524
2018-03-28T11:41:42.275Z,17824
2018-03-28T11:42:42.267Z,17920
2018-03-28T11:43:41.984Z,18400
2018-03-28T11:44:42.219Z,19936
2018-03-28T11:45:42.197Z,20224
2018-03-28T11:46:41.667Z,18848
2018-03-28T11:47:42.280Z,17064
2018-03-28T11:48:42.230Z,15020
2018-03-28T11:49:42.099Z,12508
2018-03-28T11:50:42.079Z,10652
2018-03-28T11:51:41.556Z,9704
2018-03-28T11:52:42.040Z,10076
2018-03-28T11:53:42.117Z,11148
2018-03-28T11:54:41.740Z,11972
2018-03-28T11:55:41.479Z,12348
2018-03-28T11:56:41.707Z,12436
2018-03-28T11:57:41.673Z,12632
2018-03-28T11:58:42.702Z,13288
2018-03-28T11:59:42.709Z,14392
2018-03-28T12:00:41.856Z,15508
2018-03-28T12:01:41.841Z,16368
2018-03-28T12:02:41.569Z,16912
2018-03-28T12:03:41.790Z,17288
2018-03-28T12:04:41.875Z,17228
2018-03-28T12:05:41.752Z,16836
2018-03-28T12:06:41.483Z,16220
2018-03-28T12:07:41.463Z,15520
2018-03-28T12:08:41.198Z,15340
2018-03-28T12:09:41.670Z,15512
2018-03-28T12:10:41.141Z,15132
2018-03-28T12:11:41.118Z,13044
2018-03-28T12:12:41.350Z,10800
2018-03-28T12:13:41.584Z,10448
2018-03-28T12:14:41.554Z,12548
2018-03-28T12:15:41.537Z,14600
2018-03-28T12:16:41.512Z,15952
2018-03-28T12:17:41.497Z,16468
2018-03-28T12:18:41.474Z,16088
2018-03-28T12:19:41.520Z,15872
2018-03-28T12:20:41.423Z,16328
2018-03-28T12:21:41.408Z,16244
2018-03-28T12:22:41.384Z,15760
2018-03-28T12:23:41.109Z,15492
2018-03-28T12:24:41.335Z,15380
2018-03-28T12:25:41.321Z,15524
2018-03-28T12:26:41.299Z,15676
2018-03-28T12:27:41.027Z,15596
2018-03-28T12:28:41.007Z,15624
2018-03-28T12:29:41.232Z,15292
2018-03-28T12:30:41.222Z,14788
2018-03-28T12:31:41.210Z,14328
2018-03-28T12:32:41.353Z,14164
2018-03-28T12:33:41.161Z,14312
2018-03-28T12:34:40.888Z,15100
2018-03-28T12:35:40.867Z,15744
2018-03-28T12:36:41.088Z,15876
2018-03-28T12:37:40.819Z,15776
2018-03-28T12:38:41.042Z,15624
2018-03-28T12:39:40.784Z,15288
2018-03-28T12:40:41.014Z,14480
2018-03-28T12:41:40.737Z,13752
2018-03-28T12:42:40.986Z,13292
2018-03-28T12:43:40.967Z,13500
2018-03-28T12:44:40.996Z,14052
2018-03-28T12:45:40.919Z,13980
2018-03-28T12:46:40.629Z,13456
2018-03-28T12:47:40.610Z,12944
2018-03-28T12:48:40.615Z,12580
2018-03-28T12:49:40.830Z,12144
2018-03-28T12:50:40.857Z,11552
2018-03-28T12:51:40.524Z,11032
2018-03-28T12:52:40.783Z,10700
2018-03-28T12:53:40.485Z,10376
2018-03-28T12:54:40.776Z,9996
2018-03-28T12:55:41.101Z,9664
2018-03-28T12:56:40.530Z,8996
2018-03-28T12:57:40.344Z,8076
2018-03-28T12:58:40.402Z,7204
2018-03-28T12:59:40.603Z,6996
2018-03-28T13:00:40.589Z,6992
2018-03-28T13:01:40.303Z,6736
2018-03-28T13:02:40.569Z,6720
2018-03-28T13:03:40.268Z,6584
2018-03-28T13:04:40.499Z,6876
2018-03-28T13:05:40.479Z,7036
2018-03-28T13:06:40.451Z,6872
2018-03-28T13:07:39.929Z,7276
2018-03-28T13:08:40.151Z,7672
2018-03-28T13:09:40.381Z,7632
2018-03-28T13:10:40.356Z,7216
2018-03-28T13:11:40.670Z,6664
2018-03-28T13:12:40.363Z,5756
2018-03-28T13:13:40.040Z,4992
2018-03-28T13:14:40.019Z,4684
2018-03-28T13:15:40.243Z,4888
2018-03-28T13:16:40.328Z,5640
2018-03-28T13:17:40.198Z,6920
2018-03-28T13:18:40.622Z,7644
2018-03-28T13:19:40.823Z,8060
2018-03-28T13:20:39.673Z,8272
2018-03-28T13:21:39.613Z,8180
2018-03-28T13:22:39.846Z,8024
2018-03-28T13:23:39.811Z,8068
2018-03-28T13:24:40.437Z,8400
2018-03-28T13:25:40.528Z,8732
2018-03-28T13:26:39.748Z,8924
2018-03-28T13:27:39.466Z,9156
2018-03-28T13:28:39.697Z,9236
2018-03-28T13:29:39.911Z,9100
2018-03-28T13:30:39.643Z,8976
2018-03-28T13:31:40.051Z,8856
2018-03-28T13:32:39.855Z,8768
2018-03-28T13:33:39.577Z,8744
2018-03-28T13:34:39.800Z,8488
2018-03-28T13:35:39.783Z,8052
2018-03-28T13:36:39.504Z,7588
2018-03-28T13:37:39.749Z,6456
2018-03-28T13:38:39.708Z,5508
2018-03-28T13:39:39.782Z,4952
2018-03-28T13:40:39.660Z,5012
2018-03-28T13:41:39.390Z,5328
2018-03-28T13:42:39.377Z,5116